sensor_id;sensor_type;location;lat;lon;timestamp;pressure;altitude;pressure_sealevel;temperature;humidity
28911;BME280;16028;42.642;23.310;2023-07-20T00:00:12;93712.16;;;23.49;66.25
28911;BME280;16028;42.642;23.310;2023-07-20T00:02:39;93716.09;;;23.47;66.42
28911;BME280;16028;42.642;23.310;2023-07-20T00:05:06;93723.16;;;23.41;66.02
28911;BME280;16028;42.642;23.310;2023-07-20T00:07:33;93719.44;;;23.42;66.67
28911;BME280;16028;42.642;23.310;2023-07-20T00:10:00;93703.16;;;23.39;66.86
28911;BME280;16028;42.642;23.310;2023-07-20T00:12:28;93703.75;;;23.41;65.93
28911;BME280;16028;42.642;23.310;2023-07-20T00:14:54;93700.72;;;23.37;65.79
28911;BME280;16028;42.642;23.310;2023-07-20T00:17:21;93706.84;;;23.38;65.47
28911;BME280;16028;42.642;23.310;2023-07-20T00:19:48;93713.19;;;23.37;65.90
28911;BME280;16028;42.642;23.310;2023-07-20T00:22:14;93715.28;;;23.35;65.92
28911;BME280;16028;42.642;23.310;2023-07-20T00:24:41;93713.78;;;23.39;66.16
28911;BME280;16028;42.642;23.310;2023-07-20T00:27:08;93712.16;;;23.38;67.37
28911;BME280;16028;42.642;23.310;2023-07-20T00:29:36;93715.84;;;23.37;69.04
28911;BME280;16028;42.642;23.310;2023-07-20T00:32:03;93728.22;;;23.31;70.27
28911;BME280;16028;42.642;23.310;2023-07-20T00:34:31;93721.97;;;23.26;68.90
28911;BME280;16028;42.642;23.310;2023-07-20T00:36:58;93726.94;;;23.22;67.56
28911;BME280;16028;42.642;23.310;2023-07-20T00:39:25;93719.09;;;23.15;66.82
28911;BME280;16028;42.642;23.310;2023-07-20T00:41:51;93716.44;;;23.15;70.63
28911;BME280;16028;42.642;23.310;2023-07-20T00:44:18;93710.69;;;23.07;69.46
28911;BME280;16028;42.642;23.310;2023-07-20T00:46:49;93707.09;;;23.01;67.28
28911;BME280;16028;42.642;23.310;2023-07-20T00:49:16;93701.44;;;22.98;68.88
28911;BME280;16028;42.642;23.310;2023-07-20T00:51:46;93703.50;;;22.96;69.35
28911;BME280;16028;42.642;23.310;2023-07-20T00:54:14;93704.78;;;22.93;71.15
28911;BME280;16028;42.642;23.310;2023-07-20T00:56:41;93698.66;;;22.93;72.74
28911;BME280;16028;42.642;23.310;2023-07-20T00:59:08;93695.91;;;22.88;72.68
28911;BME280;16028;42.642;23.310;2023-07-20T01:01:35;93697.06;;;22.80;72.89
28911;BME280;16028;42.642;23.310;2023-07-20T01:04:03;93699.91;;;22.79;71.24
28911;BME280;16028;42.642;23.310;2023-07-20T01:06:36;93693.34;;;22.70;70.85
28911;BME280;16028;42.642;23.310;2023-07-20T01:09:11;93692.97;;;22.66;71.56
28911;BME280;16028;42.642;23.310;2023-07-20T01:11:43;93706.75;;;22.75;68.25
28911;BME280;16028;42.642;23.310;2023-07-20T01:14:14;93709.59;;;22.73;68.01
28911;BME280;16028;42.642;23.310;2023-07-20T01:16:41;93705.78;;;22.69;68.93
28911;BME280;16028;42.642;23.310;2023-07-20T01:19:09;93707.28;;;22.65;71.74
28911;BME280;16028;42.642;23.310;2023-07-20T01:21:40;93706.31;;;22.59;72.85
28911;BME280;16028;42.642;23.310;2023-07-20T01:24:43;93708.84;;;22.54;72.74
28911;BME280;16028;42.642;23.310;2023-07-20T01:27:26;93705.59;;;22.41;72.80
28911;BME280;16028;42.642;23.310;2023-07-20T01:30:35;93701.19;;;22.35;72.88
28911;BME280;16028;42.642;23.310;2023-07-20T01:33:11;93708.59;;;22.33;73.49
28911;BME280;16028;42.642;23.310;2023-07-20T01:35:41;93704.09;;;22.33;73.28
28911;BME280;16028;42.642;23.310;2023-07-20T01:38:10;93702.81;;;22.36;74.52
28911;BME280;16028;42.642;23.310;2023-07-20T01:40:38;93710.09;;;22.40;74.47
28911;BME280;16028;42.642;23.310;2023-07-20T01:43:06;93708.84;;;22.43;73.57
28911;BME280;16028;42.642;23.310;2023-07-20T01:45:32;93706.41;;;22.41;73.61
28911;BME280;16028;42.642;23.310;2023-07-20T01:47:59;93704.78;;;22.40;74.48
28911;BME280;16028;42.642;23.310;2023-07-20T01:50:27;93707.66;;;22.39;74.57
28911;BME280;16028;42.642;23.310;2023-07-20T01:52:54;93702.69;;;22.31;74.72
28911;BME280;16028;42.642;23.310;2023-07-20T01:55:20;93703.81;;;22.23;74.91
28911;BME280;16028;42.642;23.310;2023-07-20T01:57:47;93703.09;;;22.16;75.19
28911;BME280;16028;42.642;23.310;2023-07-20T02:00:14;93696.44;;;22.13;75.18
28911;BME280;16028;42.642;23.310;2023-07-20T02:02:41;93704.38;;;22.13;76.15
28911;BME280;16028;42.642;23.310;2023-07-20T02:05:10;93694.22;;;22.10;76.39
28911;BME280;16028;42.642;23.310;2023-07-20T02:07:38;93688.56;;;22.07;77.84
28911;BME280;16028;42.642;23.310;2023-07-20T02:10:06;93691.44;;;22.05;77.59
28911;BME280;16028;42.642;23.310;2023-07-20T02:12:32;93692.25;;;22.06;78.01
28911;BME280;16028;42.642;23.310;2023-07-20T02:14:59;93691.06;;;22.02;78.52
28911;BME280;16028;42.642;23.310;2023-07-20T02:17:26;93692.78;;;21.96;79.44
28911;BME280;16028;42.642;23.310;2023-07-20T02:19:53;93699.84;;;21.84;79.30
28911;BME280;16028;42.642;23.310;2023-07-20T02:22:20;93695.88;;;21.75;78.97
28911;BME280;16028;42.642;23.310;2023-07-20T02:24:48;93690.69;;;21.69;79.15
28911;BME280;16028;42.642;23.310;2023-07-20T02:27:15;93697.22;;;21.66;79.83
28911;BME280;16028;42.642;23.310;2023-07-20T02:29:42;93690.38;;;21.58;80.09
28911;BME280;16028;42.642;23.310;2023-07-20T02:32:09;93695.75;;;21.52;79.76
28911;BME280;16028;42.642;23.310;2023-07-20T02:34:36;93694.56;;;21.48;80.54
28911;BME280;16028;42.642;23.310;2023-07-20T02:37:03;93685.41;;;21.50;80.78
28911;BME280;16028;42.642;23.310;2023-07-20T02:39:30;93688.50;;;21.47;81.71
28911;BME280;16028;42.642;23.310;2023-07-20T02:41:58;93693.44;;;21.44;82.12
28911;BME280;16028;42.642;23.310;2023-07-20T02:44:24;93678.78;;;21.41;82.55
28911;BME280;16028;42.642;23.310;2023-07-20T02:46:51;93674.00;;;21.32;82.96
28911;BME280;16028;42.642;23.310;2023-07-20T02:49:18;93674.81;;;21.32;82.60
28911;BME280;16028;42.642;23.310;2023-07-20T02:51:45;93666.06;;;21.32;82.58
28911;BME280;16028;42.642;23.310;2023-07-20T02:54:11;93664.47;;;21.31;82.34
28911;BME280;16028;42.642;23.310;2023-07-20T02:56:38;93666.50;;;21.29;82.87
28911;BME280;16028;42.642;23.310;2023-07-20T02:59:06;93666.50;;;21.29;82.92
28911;BME280;16028;42.642;23.310;2023-07-20T03:01:33;93671.59;;;21.30;82.66
28911;BME280;16028;42.642;23.310;2023-07-20T03:04:00;93676.63;;;21.32;83.48
28911;BME280;16028;42.642;23.310;2023-07-20T03:06:27;93667.75;;;21.26;84.14
28911;BME280;16028;42.642;23.310;2023-07-20T03:08:54;93674.94;;;21.19;84.07
28911;BME280;16028;42.642;23.310;2023-07-20T03:11:21;93679.28;;;21.14;83.77
28911;BME280;16028;42.642;23.310;2023-07-20T03:13:48;93668.53;;;21.08;83.39
28911;BME280;16028;42.642;23.310;2023-07-20T03:16:18;93675.28;;;21.04;84.13
28911;BME280;16028;42.642;23.310;2023-07-20T03:18:45;93676.75;;;21.00;84.72
28911;BME280;16028;42.642;23.310;2023-07-20T03:21:12;93689.41;;;20.98;84.67
28911;BME280;16028;42.642;23.310;2023-07-20T03:23:39;93691.44;;;20.96;84.73
28911;BME280;16028;42.642;23.310;2023-07-20T03:26:05;93682.72;;;20.96;85.37
28911;BME280;16028;42.642;23.310;2023-07-20T03:28:33;93689.03;;;20.95;85.50
28911;BME280;16028;42.642;23.310;2023-07-20T03:31:00;93688.66;;;20.91;86.00
28911;BME280;16028;42.642;23.310;2023-07-20T03:33:29;93693.72;;;20.93;85.98
28911;BME280;16028;42.642;23.310;2023-07-20T03:35:56;93684.75;;;20.94;86.31
28911;BME280;16028;42.642;23.310;2023-07-20T03:38:23;93681.09;;;20.95;86.58
28911;BME280;16028;42.642;23.310;2023-07-20T03:40:50;93682.47;;;20.97;86.98
28911;BME280;16028;42.642;23.310;2023-07-20T03:43:17;93684.75;;;20.94;86.85
28911;BME280;16028;42.642;23.310;2023-07-20T03:45:44;93688.66;;;20.91;86.54
28911;BME280;16028;42.642;23.310;2023-07-20T03:48:13;93689.47;;;20.92;87.35
28911;BME280;16028;42.642;23.310;2023-07-20T03:50:41;93695.56;;;20.92;87.68
28911;BME280;16028;42.642;23.310;2023-07-20T03:53:08;93697.16;;;20.93;87.62
28911;BME280;16028;42.642;23.310;2023-07-20T03:55:34;93698.78;;;20.94;87.69
28911;BME280;16028;42.642;23.310;2023-07-20T03:58:01;93694.06;;;20.96;88.58
28911;BME280;16028;42.642;23.310;2023-07-20T04:00:28;93699.97;;;20.98;89.02
28911;BME280;16028;42.642;23.310;2023-07-20T04:02:55;93704.44;;;20.98;89.05
28911;BME280;16028;42.642;23.310;2023-07-20T04:05:21;93702.63;;;20.98;89.08
28911;BME280;16028;42.642;23.310;2023-07-20T04:07:50;93703.81;;;21.02;88.94
28911;BME280;16028;42.642;23.310;2023-07-20T04:10:16;93691.13;;;21.11;88.85
28911;BME280;16028;42.642;23.310;2023-07-20T04:12:44;93681.28;;;21.18;87.99
28911;BME280;16028;42.642;23.310;2023-07-20T04:15:12;93683.88;;;21.25;86.84
28911;BME280;16028;42.642;23.310;2023-07-20T04:17:39;93674.81;;;21.32;86.35
28911;BME280;16028;42.642;23.310;2023-07-20T04:20:07;93674.72;;;21.39;86.98
28911;BME280;16028;42.642;23.310;2023-07-20T04:22:34;93677.31;;;21.45;87.26
28911;BME280;16028;42.642;23.310;2023-07-20T04:25:03;93680.00;;;21.57;85.25
28911;BME280;16028;42.642;23.310;2023-07-20T04:27:30;93683.66;;;21.74;83.10
28911;BME280;16028;42.642;23.310;2023-07-20T04:29:58;93679.03;;;21.88;79.70
28911;BME280;16028;42.642;23.310;2023-07-20T04:32:25;93679.91;;;22.00;79.60
28911;BME280;16028;42.642;23.310;2023-07-20T04:34:52;93684.19;;;22.12;78.63
28911;BME280;16028;42.642;23.310;2023-07-20T04:37:18;93678.00;;;22.19;80.14
28911;BME280;16028;42.642;23.310;2023-07-20T04:39:45;93671.13;;;22.29;77.66
28911;BME280;16028;42.642;23.310;2023-07-20T04:42:13;93670.22;;;22.47;77.38
28911;BME280;16028;42.642;23.310;2023-07-20T04:44:40;93659.03;;;22.56;78.51
28911;BME280;16028;42.642;23.310;2023-07-20T04:47:07;93667.94;;;22.62;78.62
28911;BME280;16028;42.642;23.310;2023-07-20T04:49:34;93664.03;;;22.64;79.72
28911;BME280;16028;42.642;23.310;2023-07-20T04:52:02;93670.28;;;22.82;77.79
28911;BME280;16028;42.642;23.310;2023-07-20T04:54:29;93665.22;;;22.92;76.86
28911;BME280;16028;42.642;23.310;2023-07-20T04:56:55;93669.38;;;22.99;78.90
28911;BME280;16028;42.642;23.310;2023-07-20T04:59:23;93663.50;;;22.97;78.90
28911;BME280;16028;42.642;23.310;2023-07-20T05:01:50;93662.56;;;23.03;78.34
28911;BME280;16028;42.642;23.310;2023-07-20T05:04:17;93669.69;;;23.14;73.03
28911;BME280;16028;42.642;23.310;2023-07-20T05:06:45;93661.41;;;23.11;76.30
28911;BME280;16028;42.642;23.310;2023-07-20T05:09:13;93662.91;;;23.07;76.10
28911;BME280;16028;42.642;23.310;2023-07-20T05:11:40;93658.97;;;22.98;77.09
28911;BME280;16028;42.642;23.310;2023-07-20T05:14:06;93661.41;;;22.99;77.33
28911;BME280;16028;42.642;23.310;2023-07-20T05:16:34;93668.00;;;22.97;77.47
28911;BME280;16028;42.642;23.310;2023-07-20T05:19:01;93670.41;;;22.98;76.21
28911;BME280;16028;42.642;23.310;2023-07-20T05:21:28;93678.03;;;23.06;77.04
28911;BME280;16028;42.642;23.310;2023-07-20T05:23:54;93669.81;;;23.08;75.82
28911;BME280;16028;42.642;23.310;2023-07-20T05:26:21;93672.59;;;23.01;75.37
28911;BME280;16028;42.642;23.310;2023-07-20T05:28:48;93676.06;;;23.02;75.62
28911;BME280;16028;42.642;23.310;2023-07-20T05:31:15;93679.88;;;23.06;75.45
28911;BME280;16028;42.642;23.310;2023-07-20T05:33:43;93683.34;;;23.06;75.52
28911;BME280;16028;42.642;23.310;2023-07-20T05:36:28;93687.34;;;23.32;72.78
28911;BME280;16028;42.642;23.310;2023-07-20T05:38:56;93685.25;;;23.57;71.35
28911;BME280;16028;42.642;23.310;2023-07-20T05:41:23;93685.75;;;23.83;69.35
28911;BME280;16028;42.642;23.310;2023-07-20T05:43:49;93694.50;;;23.95;69.51
28911;BME280;16028;42.642;23.310;2023-07-20T05:46:16;93700.47;;;24.02;70.46
28911;BME280;16028;42.642;23.310;2023-07-20T05:48:44;93689.72;;;24.37;69.16
28911;BME280;16028;42.642;23.310;2023-07-20T05:51:11;93704.75;;;24.76;66.43
28911;BME280;16028;42.642;23.310;2023-07-20T05:53:37;93697.53;;;24.88;65.19
28911;BME280;16028;42.642;23.310;2023-07-20T05:56:05;93696.72;;;25.04;62.92
28911;BME280;16028;42.642;23.310;2023-07-20T05:58:35;93701.38;;;25.14;63.45
28911;BME280;16028;42.642;23.310;2023-07-20T06:01:03;93691.06;;;25.17;65.83
28911;BME280;16028;42.642;23.310;2023-07-20T06:03:31;93681.91;;;25.30;65.38
28911;BME280;16028;42.642;23.310;2023-07-20T06:06:00;93686.06;;;25.43;65.98
28911;BME280;16028;42.642;23.310;2023-07-20T06:08:27;93693.75;;;25.39;65.65
28911;BME280;16028;42.642;23.310;2023-07-20T06:10:54;93694.00;;;25.21;65.50
28911;BME280;16028;42.642;23.310;2023-07-20T06:13:21;93694.19;;;25.53;65.25
28911;BME280;16028;42.642;23.310;2023-07-20T06:15:48;93697.25;;;25.83;60.86
28911;BME280;16028;42.642;23.310;2023-07-20T06:18:14;93693.38;;;25.91;59.91
28911;BME280;16028;42.642;23.310;2023-07-20T06:20:41;93683.06;;;25.99;62.47
28911;BME280;16028;42.642;23.310;2023-07-20T06:23:09;93677.22;;;26.02;60.26
28911;BME280;16028;42.642;23.310;2023-07-20T06:25:36;93673.31;;;26.32;56.35
28911;BME280;16028;42.642;23.310;2023-07-20T06:28:03;93663.97;;;26.34;58.10
28911;BME280;16028;42.642;23.310;2023-07-20T06:30:30;93661.97;;;26.19;61.40
28911;BME280;16028;42.642;23.310;2023-07-20T06:33:00;93661.06;;;25.87;61.62
28911;BME280;16028;42.642;23.310;2023-07-20T06:35:26;93672.28;;;25.67;61.62
28911;BME280;16028;42.642;23.310;2023-07-20T06:37:53;93660.19;;;25.60;60.58
28911;BME280;16028;42.642;23.310;2023-07-20T06:40:21;93665.63;;;25.48;60.03
28911;BME280;16028;42.642;23.310;2023-07-20T06:42:48;93661.47;;;25.36;61.59
28911;BME280;16028;42.642;23.310;2023-07-20T06:45:15;93657.34;;;25.66;63.58
28911;BME280;16028;42.642;23.310;2023-07-20T06:47:42;93668.09;;;26.20;62.62
28911;BME280;16028;42.642;23.310;2023-07-20T06:50:09;93668.50;;;26.60;59.86
28911;BME280;16028;42.642;23.310;2023-07-20T06:52:36;93667.19;;;26.95;56.28
28911;BME280;16028;42.642;23.310;2023-07-20T06:55:06;93657.56;;;26.94;56.80
28911;BME280;16028;42.642;23.310;2023-07-20T06:57:34;93674.81;;;26.81;57.05
28911;BME280;16028;42.642;23.310;2023-07-20T07:00:01;93677.66;;;26.69;59.28
28911;BME280;16028;42.642;23.310;2023-07-20T07:02:29;93685.44;;;26.76;60.23
28911;BME280;16028;42.642;23.310;2023-07-20T07:04:56;93686.72;;;27.00;58.78
28911;BME280;16028;42.642;23.310;2023-07-20T07:07:22;93701.34;;;27.24;57.02
28911;BME280;16028;42.642;23.310;2023-07-20T07:09:49;93692.59;;;27.39;55.12
28911;BME280;16028;42.642;23.310;2023-07-20T07:12:16;93708.25;;;27.25;54.45
28911;BME280;16028;42.642;23.310;2023-07-20T07:14:44;93700.69;;;27.12;55.47
28911;BME280;16028;42.642;23.310;2023-07-20T07:17:10;93711.16;;;26.82;57.13
28911;BME280;16028;42.642;23.310;2023-07-20T07:19:37;93730.19;;;26.64;56.52
28911;BME280;16028;42.642;23.310;2023-07-20T07:22:04;93732.34;;;26.67;55.34
28911;BME280;16028;42.642;23.310;2023-07-20T07:24:31;93747.13;;;27.06;53.25
28911;BME280;16028;42.642;23.310;2023-07-20T07:26:59;93743.41;;;26.80;55.48
28911;BME280;16028;42.642;23.310;2023-07-20T07:29:26;93748.84;;;27.22;53.21
28911;BME280;16028;42.642;23.310;2023-07-20T07:31:54;93741.44;;;26.98;55.25
28911;BME280;16028;42.642;23.310;2023-07-20T07:34:21;93733.84;;;26.85;56.77
28911;BME280;16028;42.642;23.310;2023-07-20T07:36:47;93734.34;;;27.08;56.49
28911;BME280;16028;42.642;23.310;2023-07-20T07:39:15;93728.66;;;26.73;57.57
28911;BME280;16028;42.642;23.310;2023-07-20T07:41:42;93724.16;;;26.52;59.77
28911;BME280;16028;42.642;23.310;2023-07-20T07:44:08;93718.41;;;26.60;58.64
28911;BME280;16028;42.642;23.310;2023-07-20T07:46:35;93725.78;;;26.53;60.08
28911;BME280;16028;42.642;23.310;2023-07-20T07:49:03;93720.97;;;26.50;61.02
28911;BME280;16028;42.642;23.310;2023-07-20T07:51:30;93713.56;;;26.57;58.28
28911;BME280;16028;42.642;23.310;2023-07-20T07:53:56;93694.50;;;26.75;59.21
28911;BME280;16028;42.642;23.310;2023-07-20T07:56:23;93679.06;;;26.77;60.23
28911;BME280;16028;42.642;23.310;2023-07-20T07:58:50;93693.63;;;26.64;61.11
28911;BME280;16028;42.642;23.310;2023-07-20T08:01:18;93687.94;;;26.56;61.62
28911;BME280;16028;42.642;23.310;2023-07-20T08:03:45;93675.72;;;26.65;61.08
28911;BME280;16028;42.642;23.310;2023-07-20T08:06:14;93695.56;;;26.74;60.54
28911;BME280;16028;42.642;23.310;2023-07-20T08:08:41;93707.75;;;26.65;61.04
28911;BME280;16028;42.642;23.310;2023-07-20T08:11:09;93729.19;;;26.75;61.15
28911;BME280;16028;42.642;23.310;2023-07-20T08:13:36;93747.28;;;26.90;60.10
28911;BME280;16028;42.642;23.310;2023-07-20T08:16:03;93749.25;;;27.04;60.48
28911;BME280;16028;42.642;23.310;2023-07-20T08:18:30;93748.56;;;26.87;61.55
28911;BME280;16028;42.642;23.310;2023-07-20T08:20:57;93745.84;;;27.14;59.35
28911;BME280;16028;42.642;23.310;2023-07-20T08:23:25;93741.09;;;27.21;60.66
28911;BME280;16028;42.642;23.310;2023-07-20T08:25:52;93769.28;;;27.07;59.27
28911;BME280;16028;42.642;23.310;2023-07-20T08:28:19;93755.22;;;26.85;56.45
28911;BME280;16028;42.642;23.310;2023-07-20T08:30:47;93744.03;;;26.61;57.45
28911;BME280;16028;42.642;23.310;2023-07-20T08:33:15;93751.84;;;26.46;64.10
28911;BME280;16028;42.642;23.310;2023-07-20T08:35:43;93757.19;;;26.19;60.44
28911;BME280;16028;42.642;23.310;2023-07-20T08:38:10;93765.19;;;26.19;57.67
28911;BME280;16028;42.642;23.310;2023-07-20T08:40:43;93756.25;;;26.13;57.69
28911;BME280;16028;42.642;23.310;2023-07-20T08:43:11;93757.41;;;25.96;58.38
28911;BME280;16028;42.642;23.310;2023-07-20T08:45:39;93754.50;;;25.97;59.44
28911;BME280;16028;42.642;23.310;2023-07-20T08:48:07;93740.72;;;26.05;59.24
28911;BME280;16028;42.642;23.310;2023-07-20T08:50:35;93742.34;;;26.06;57.32
28911;BME280;16028;42.642;23.310;2023-07-20T08:53:02;93738.59;;;26.07;58.73
28911;BME280;16028;42.642;23.310;2023-07-20T08:55:30;93730.78;;;26.01;58.54
28911;BME280;16028;42.642;23.310;2023-07-20T08:57:59;93737.06;;;26.33;54.48
28911;BME280;16028;42.642;23.310;2023-07-20T09:00:26;93725.09;;;26.36;54.14
28911;BME280;16028;42.642;23.310;2023-07-20T09:02:54;93732.78;;;26.59;53.14
28911;BME280;16028;42.642;23.310;2023-07-20T09:05:22;93716.47;;;26.55;53.63
28911;BME280;16028;42.642;23.310;2023-07-20T09:07:51;93726.69;;;26.63;53.26
28911;BME280;16028;42.642;23.310;2023-07-20T09:10:18;93720.41;;;26.48;53.58
28911;BME280;16028;42.642;23.310;2023-07-20T09:12:46;93727.41;;;26.54;53.01
28911;BME280;16028;42.642;23.310;2023-07-20T09:15:15;93719.66;;;26.52;54.43
28911;BME280;16028;42.642;23.310;2023-07-20T09:17:45;93722.81;;;26.76;52.87
28911;BME280;16028;42.642;23.310;2023-07-20T09:20:14;93711.28;;;26.70;53.50
28911;BME280;16028;42.642;23.310;2023-07-20T09:22:41;93704.25;;;26.59;53.96
28911;BME280;16028;42.642;23.310;2023-07-20T09:25:11;93718.00;;;26.78;50.76
28911;BME280;16028;42.642;23.310;2023-07-20T09:27:40;93713.94;;;26.97;49.77
28911;BME280;16028;42.642;23.310;2023-07-20T09:30:08;93708.88;;;26.96;50.04
28911;BME280;16028;42.642;23.310;2023-07-20T09:32:40;93698.41;;;26.89;51.41
28911;BME280;16028;42.642;23.310;2023-07-20T09:35:12;93709.59;;;26.86;51.05
28911;BME280;16028;42.642;23.310;2023-07-20T09:37:41;93701.56;;;26.86;50.76
28911;BME280;16028;42.642;23.310;2023-07-20T09:40:14;93708.06;;;26.95;50.77
28911;BME280;16028;42.642;23.310;2023-07-20T09:42:41;93711.03;;;26.99;49.36
28911;BME280;16028;42.642;23.310;2023-07-20T09:45:09;93700.22;;;27.20;49.59
28911;BME280;16028;42.642;23.310;2023-07-20T09:47:38;93699.56;;;27.03;49.80
28911;BME280;16028;42.642;23.310;2023-07-20T09:50:07;93699.22;;;27.31;48.45
28911;BME280;16028;42.642;23.310;2023-07-20T09:52:38;93687.06;;;27.46;48.81
28911;BME280;16028;42.642;23.310;2023-07-20T09:55:07;93678.50;;;27.49;49.89
28911;BME280;16028;42.642;23.310;2023-07-20T09:57:34;93665.50;;;27.62;48.71
28911;BME280;16028;42.642;23.310;2023-07-20T10:00:01;93673.84;;;27.81;46.36
28911;BME280;16028;42.642;23.310;2023-07-20T10:02:32;93655.94;;;27.86;47.24
28911;BME280;16028;42.642;23.310;2023-07-20T10:05:02;93661.06;;;27.93;46.25
28911;BME280;16028;42.642;23.310;2023-07-20T10:07:31;93653.00;;;27.83;47.60
28911;BME280;16028;42.642;23.310;2023-07-20T10:10:02;93663.50;;;27.95;47.61
28911;BME280;16028;42.642;23.310;2023-07-20T10:12:31;93670.72;;;27.99;47.42
28911;BME280;16028;42.642;23.310;2023-07-20T10:15:06;93675.00;;;28.00;46.07
28911;BME280;16028;42.642;23.310;2023-07-20T10:17:40;93676.06;;;27.99;45.85
28911;BME280;16028;42.642;23.310;2023-07-20T10:20:16;93677.25;;;28.23;45.17
28911;BME280;16028;42.642;23.310;2023-07-20T10:22:47;93674.31;;;28.30;45.52
28911;BME280;16028;42.642;23.310;2023-07-20T10:25:16;93676.97;;;28.20;46.79
28911;BME280;16028;42.642;23.310;2023-07-20T10:27:45;93679.38;;;28.16;46.72
28911;BME280;16028;42.642;23.310;2023-07-20T10:30:13;93686.88;;;28.34;45.77
28911;BME280;16028;42.642;23.310;2023-07-20T10:32:40;93664.38;;;28.15;47.64
28911;BME280;16028;42.642;23.310;2023-07-20T10:35:13;93656.34;;;28.10;47.96
28911;BME280;16028;42.642;23.310;2023-07-20T10:37:48;93658.22;;;28.15;46.72
28911;BME280;16028;42.642;23.310;2023-07-20T10:40:27;93652.06;;;28.24;47.00
28911;BME280;16028;42.642;23.310;2023-07-20T10:43:01;93660.94;;;28.50;46.52
28911;BME280;16028;42.642;23.310;2023-07-20T10:45:42;93654.81;;;28.55;46.99
28911;BME280;16028;42.642;23.310;2023-07-20T10:48:15;93618.94;;;28.66;45.96
28911;BME280;16028;42.642;23.310;2023-07-20T10:50:43;93574.50;;;28.29;47.33
28911;BME280;16028;42.642;23.310;2023-07-20T10:53:12;93583.31;;;28.25;47.96
28911;BME280;16028;42.642;23.310;2023-07-20T10:55:39;93607.41;;;28.40;48.84
28911;BME280;16028;42.642;23.310;2023-07-20T10:58:07;93608.00;;;28.77;48.15
28911;BME280;16028;42.642;23.310;2023-07-20T11:00:34;93604.19;;;28.99;47.94
28911;BME280;16028;42.642;23.310;2023-07-20T11:03:01;93578.47;;;29.03;48.45
28911;BME280;16028;42.642;23.310;2023-07-20T11:05:32;93582.72;;;29.19;46.11
28911;BME280;16028;42.642;23.310;2023-07-20T11:08:00;93585.16;;;29.25;46.78
28911;BME280;16028;42.642;23.310;2023-07-20T11:10:30;93575.53;;;29.04;47.42
28911;BME280;16028;42.642;23.310;2023-07-20T11:13:16;93590.22;;;29.37;44.42
28911;BME280;16028;42.642;23.310;2023-07-20T11:15:47;93602.25;;;29.39;45.54
28911;BME280;16028;42.642;23.310;2023-07-20T11:18:14;93594.91;;;29.70;45.61
28911;BME280;16028;42.642;23.310;2023-07-20T11:20:41;93578.34;;;29.53;46.14
28911;BME280;16028;42.642;23.310;2023-07-20T11:23:08;93589.31;;;29.62;45.11
28911;BME280;16028;42.642;23.310;2023-07-20T11:25:40;93587.50;;;30.06;43.39
28911;BME280;16028;42.642;23.310;2023-07-20T11:28:07;93576.84;;;29.96;45.02
28911;BME280;16028;42.642;23.310;2023-07-20T11:30:36;93577.00;;;30.10;43.65
28911;BME280;16028;42.642;23.310;2023-07-20T11:33:03;93587.56;;;30.40;42.40
28911;BME280;16028;42.642;23.310;2023-07-20T11:35:30;93584.44;;;30.62;41.62
28911;BME280;16028;42.642;23.310;2023-07-20T11:37:57;93579.63;;;30.59;41.50
28911;BME280;16028;42.642;23.310;2023-07-20T11:40:24;93558.88;;;30.30;43.70
28911;BME280;16028;42.642;23.310;2023-07-20T11:42:53;93571.19;;;30.70;41.75
28911;BME280;16028;42.642;23.310;2023-07-20T11:45:19;93564.25;;;30.69;41.85
28911;BME280;16028;42.642;23.310;2023-07-20T11:47:46;93572.34;;;30.64;41.05
28911;BME280;16028;42.642;23.310;2023-07-20T11:50:13;93565.88;;;30.65;41.76
28911;BME280;16028;42.642;23.310;2023-07-20T11:52:41;93563.69;;;30.72;41.46
28911;BME280;16028;42.642;23.310;2023-07-20T11:55:08;93561.03;;;30.67;41.35
28911;BME280;16028;42.642;23.310;2023-07-20T11:57:35;93560.53;;;30.60;41.98
28911;BME280;16028;42.642;23.310;2023-07-20T12:00:06;93558.06;;;30.69;41.20
28911;BME280;16028;42.642;23.310;2023-07-20T12:02:37;93532.25;;;30.44;43.94
28911;BME280;16028;42.642;23.310;2023-07-20T12:05:06;93547.91;;;30.61;42.34
28911;BME280;16028;42.642;23.310;2023-07-20T12:07:36;93545.56;;;30.83;42.64
28911;BME280;16028;42.642;23.310;2023-07-20T12:10:05;93545.22;;;30.89;42.32
28911;BME280;16028;42.642;23.310;2023-07-20T12:12:32;93565.72;;;31.14;39.35
28911;BME280;16028;42.642;23.310;2023-07-20T12:15:14;93543.44;;;31.09;41.72
28911;BME280;16028;42.642;23.310;2023-07-20T12:17:44;93544.75;;;31.11;40.86
28911;BME280;16028;42.642;23.310;2023-07-20T12:20:11;93536.59;;;31.21;40.14
28911;BME280;16028;42.642;23.310;2023-07-20T12:22:39;93552.25;;;31.38;39.14
28911;BME280;16028;42.642;23.310;2023-07-20T12:25:06;93557.88;;;31.41;38.90
28911;BME280;16028;42.642;23.310;2023-07-20T12:27:36;93553.50;;;31.51;36.97
28911;BME280;16028;42.642;23.310;2023-07-20T12:30:04;93553.94;;;31.58;37.45
28911;BME280;16028;42.642;23.310;2023-07-20T12:32:33;93552.16;;;31.72;36.69
28911;BME280;16028;42.642;23.310;2023-07-20T12:35:00;93537.91;;;31.71;38.89
28911;BME280;16028;42.642;23.310;2023-07-20T12:37:26;93541.78;;;31.84;38.56
28911;BME280;16028;42.642;23.310;2023-07-20T12:39:53;93561.59;;;31.88;36.34
28911;BME280;16028;42.642;23.310;2023-07-20T12:42:20;93540.75;;;31.80;38.00
28911;BME280;16028;42.642;23.310;2023-07-20T12:44:48;93554.63;;;31.87;35.98
28911;BME280;16028;42.642;23.310;2023-07-20T12:47:16;93558.34;;;31.91;35.62
28911;BME280;16028;42.642;23.310;2023-07-20T12:49:44;93560.97;;;31.96;35.50
28911;BME280;16028;42.642;23.310;2023-07-20T12:52:12;93566.63;;;31.94;34.18
28911;BME280;16028;42.642;23.310;2023-07-20T12:54:38;93580.31;;;31.98;32.82